createdAt,value
2022-09-28T00:01:23.913Z,99.99
2022-09-28T00:03:54.656Z,99.99
2022-09-28T00:06:24.676Z,99.99
2022-09-28T00:08:52.876Z,99.99
2022-09-28T00:11:22.893Z,99.99
2022-09-28T00:13:52.750Z,99.99
2022-09-28T00:16:25.789Z,99.99
2022-09-28T00:18:54.296Z,99.99
2022-09-28T00:21:25.418Z,99.99
2022-09-28T00:24:13.284Z,99.99
2022-09-28T00:26:45.842Z,99.99
2022-09-28T00:29:34.790Z,99.99
2022-09-28T00:32:06.170Z,99.99
2022-09-28T00:34:36.389Z,99.99
2022-09-28T00:37:05.643Z,99.99
2022-09-28T00:39:35.601Z,99.99
2022-09-28T00:42:04.326Z,99.99
2022-09-28T00:44:51.245Z,99.99
2022-09-28T00:47:40.467Z,99.99
2022-09-28T00:50:14.563Z,99.99
2022-09-28T00:52:48.495Z,99.99
2022-09-28T00:55:21.899Z,99.99
2022-09-28T00:57:55.467Z,99.99
2022-09-28T01:00:23.867Z,99.99
2022-09-28T01:02:52.395Z,99.99
2022-09-28T01:05:22.046Z,99.99
2022-09-28T01:07:50.478Z,99.99
2022-09-28T01:10:18.435Z,99.99
2022-09-28T01:12:46.215Z,99.99
2022-09-28T01:15:15.595Z,99.99
2022-09-28T01:18:14.729Z,99.99
2022-09-28T01:21:05.243Z,99.99
2022-09-28T01:23:47.571Z,99.99
2022-09-28T01:26:56.625Z,99.99
2022-09-28T01:29:39.278Z,99.99
2022-09-28T01:32:50.378Z,99.99
2022-09-28T01:35:31.315Z,99.99
2022-09-28T01:38:46.329Z,99.99
2022-09-28T01:41:17.481Z,99.99
2022-09-28T01:43:56.039Z,99.99
2022-09-28T01:46:41.327Z,99.99
2022-09-28T01:49:19.098Z,99.99
2022-09-28T01:52:12.840Z,99.99
2022-09-28T01:54:48.884Z,99.99
2022-09-28T01:57:26.329Z,99.99
2022-09-28T02:00:04.490Z,99.99
2022-09-28T02:02:48.504Z,99.99
2022-09-28T02:05:29.585Z,99.99
2022-09-28T02:08:12.983Z,99.99
2022-09-28T02:10:54.077Z,99.99
2022-09-28T02:13:44.421Z,99.99
2022-09-28T02:16:25.697Z,99.99
2022-09-28T02:18:53.800Z,99.99
2022-09-28T02:21:43.765Z,99.99
2022-09-28T02:24:21.637Z,99.99
2022-09-28T02:26:51.906Z,99.99
2022-09-28T02:29:19.738Z,99.99
2022-09-28T02:31:47.601Z,99.99
2022-09-28T02:34:15.478Z,99.99
2022-09-28T02:36:44.924Z,99.99
2022-09-28T02:39:17.878Z,99.99
2022-09-28T02:42:04.753Z,99.99
2022-09-28T02:44:57.650Z,99.99
2022-09-28T02:47:43.530Z,99.99
2022-09-28T02:50:41.643Z,99.99
2022-09-28T02:53:31.030Z,99.99
2022-09-28T02:56:13.859Z,99.99
2022-09-28T02:59:07.853Z,99.99
2022-09-28T03:01:40.792Z,99.99
2022-09-28T03:04:16.051Z,99.99
2022-09-28T03:07:06.567Z,99.99
2022-09-28T03:10:07.849Z,99.99
2022-09-28T03:12:37.372Z,99.99
2022-09-28T03:15:22.548Z,99.99
2022-09-28T03:17:51.980Z,99.99
2022-09-28T03:20:20.122Z,99.99
2022-09-28T03:23:06.048Z,99.99
2022-09-28T03:25:36.027Z,99.99
2022-09-28T03:28:03.816Z,99.99
2022-09-28T03:30:34.693Z,99.99
2022-09-28T03:33:03.114Z,99.99
2022-09-28T03:35:33.520Z,99.99
2022-09-28T03:38:01.325Z,99.99
2022-09-28T03:40:31.293Z,99.99
2022-09-28T03:43:01.123Z,99.99
2022-09-28T03:45:29.043Z,99.99
2022-09-28T03:47:56.826Z,99.99
2022-09-28T03:50:24.624Z,99.99
2022-09-28T03:52:52.626Z,99.99
2022-09-28T03:55:20.464Z,99.99
2022-09-28T03:57:55.627Z,99.99
2022-09-28T04:00:24.045Z,99.99
2022-09-28T04:02:52.011Z,99.99
2022-09-28T04:05:19.797Z,99.99
2022-09-28T04:07:48.787Z,99.99
2022-09-28T04:10:16.570Z,99.99
2022-09-28T04:12:45.875Z,99.99
2022-09-28T04:15:15.610Z,99.99
2022-09-28T04:17:43.727Z,99.99
2022-09-28T04:20:22.647Z,99.99
2022-09-28T04:23:05.723Z,99.99
2022-09-28T04:25:33.645Z,99.99
2022-09-28T04:28:19.968Z,99.99
2022-09-28T04:30:48.384Z,99.99
2022-09-28T04:33:17.164Z,99.99
2022-09-28T04:35:45.065Z,99.99
2022-09-28T04:38:12.894Z,99.99
2022-09-28T04:40:41.348Z,99.99
2022-09-28T04:43:09.207Z,99.99
2022-09-28T04:45:37.513Z,99.99
2022-09-28T04:48:09.507Z,99.99
2022-09-28T04:51:01.446Z,99.99
2022-09-28T04:53:29.792Z,99.99
2022-09-28T04:56:09.710Z,99.99
2022-09-28T04:58:39.790Z,99.99
2022-09-28T05:01:11.372Z,99.99
2022-09-28T05:04:14.237Z,99.99
2022-09-28T05:07:08.073Z,99.99
2022-09-28T05:09:38.594Z,99.99
2022-09-28T05:12:08.461Z,99.99
2022-09-28T05:14:36.503Z,99.99
2022-09-28T05:17:05.207Z,99.99
2022-09-28T05:19:54.923Z,99.99
2022-09-28T05:22:22.915Z,99.99
2022-09-28T05:24:50.705Z,99.99
2022-09-28T05:27:18.654Z,99.99
2022-09-28T05:29:53.323Z,99.99
2022-09-28T05:32:56.034Z,99.99
2022-09-28T05:35:41.973Z,99.99
2022-09-28T05:38:09.793Z,99.99
2022-09-28T05:40:37.726Z,99.99
2022-09-28T05:43:05.631Z,99.99
2022-09-28T05:45:34.387Z,99.99
2022-09-28T05:48:04.041Z,99.99
2022-09-28T05:50:31.899Z,99.99
2022-09-28T05:53:05.934Z,99.99
2022-09-28T05:55:34.892Z,99.99
2022-09-28T05:58:05.739Z,99.99
2022-09-28T06:00:35.317Z,99.99
2022-09-28T06:03:09.192Z,99.99
2022-09-28T06:05:39.195Z,99.99
2022-09-28T06:08:10.542Z,99.99
2022-09-28T06:10:39.891Z,99.99
2022-09-28T06:13:08.466Z,99.99
2022-09-28T06:15:37.110Z,99.99
2022-09-28T06:18:13.976Z,99.99
2022-09-28T06:21:00.403Z,99.99
2022-09-28T06:23:33.548Z,99.99
2022-09-28T06:26:01.466Z,99.99
2022-09-28T06:28:29.238Z,99.99
2022-09-28T06:30:59.542Z,99.99
2022-09-28T06:33:27.737Z,99.99
2022-09-28T06:35:55.691Z,99.99
2022-09-28T06:38:23.542Z,99.99
2022-09-28T06:40:51.434Z,99.99
2022-09-28T06:43:19.342Z,99.99
2022-09-28T06:46:06.466Z,99.99
2022-09-28T06:48:52.458Z,97.89
2022-09-28T06:51:29.996Z,97.56
2022-09-28T06:53:59.258Z,97.43
2022-09-28T06:56:38.479Z,97.22
2022-09-28T06:59:06.654Z,97.01
2022-09-28T07:01:36.122Z,96.55
2022-09-28T07:04:31.188Z,94.68
2022-09-28T07:07:34.022Z,94.03
2022-09-28T07:10:29.464Z,92.70
2022-09-28T07:13:43.812Z,90.77
2022-09-28T07:16:10.226Z,88.86
2022-09-28T07:18:38.117Z,86.07
2022-09-28T07:21:08.056Z,83.61
2022-09-28T07:23:46.786Z,81.07
2022-09-28T07:26:24.855Z,80.56
2022-09-28T07:29:04.939Z,79.66
2022-09-28T07:31:39.438Z,78.57
2022-09-28T07:34:27.219Z,77.54
2022-09-28T07:37:04.548Z,77.02
2022-09-28T07:39:52.404Z,76.57
2022-09-28T07:42:20.293Z,75.87
2022-09-28T07:44:48.326Z,75.98
2022-09-28T07:47:16.432Z,75.11
2022-09-28T07:50:03.083Z,75.46
2022-09-28T07:52:49.357Z,75.78
2022-09-28T07:55:30.285Z,76.19
2022-09-28T07:58:06.914Z,77.25
2022-09-28T08:01:08.810Z,77.04
2022-09-28T08:03:38.046Z,79.18
2022-09-28T08:06:09.817Z,80.13
2022-09-28T08:08:38.461Z,80.48
2022-09-28T08:11:10.684Z,82.04
2022-09-28T08:14:04.199Z,83.59
2022-09-28T08:16:53.343Z,83.61
2022-09-28T08:19:59.348Z,83.19
2022-09-28T08:22:27.776Z,84.38
2022-09-28T08:24:57.050Z,84.62
2022-09-28T08:27:24.795Z,84.50
2022-09-28T08:29:52.805Z,84.06
2022-09-28T08:32:38.993Z,84.42
2022-09-28T08:35:27.027Z,85.16
2022-09-28T08:38:13.849Z,85.25
2022-09-28T08:41:24.846Z,84.28
2022-09-28T08:44:11.302Z,84.57
2022-09-28T08:47:04.263Z,85.05
2022-09-28T08:49:47.179Z,85.04
2022-09-28T08:52:40.417Z,84.71
2022-09-28T08:55:28.955Z,85.11
2022-09-28T08:58:00.111Z,85.19
2022-09-28T09:00:47.040Z,84.19
2022-09-28T09:03:20.595Z,82.84
2022-09-28T09:06:29.730Z,83.00
2022-09-28T09:09:19.870Z,83.97
2022-09-28T09:12:18.907Z,82.35
2022-09-28T09:15:13.333Z,82.69
2022-09-28T09:18:03.390Z,81.27
2022-09-28T09:21:29.308Z,79.48
2022-09-28T09:24:06.782Z,81.46
2022-09-28T09:26:41.559Z,79.22
2022-09-28T09:29:41.509Z,79.60
2022-09-28T09:32:30.695Z,80.50
2022-09-28T09:35:22.140Z,79.38
2022-09-28T09:38:19.271Z,79.66
2022-09-28T09:41:31.970Z,80.26
2022-09-28T09:44:48.835Z,78.02
2022-09-28T09:47:43.041Z,77.11
2022-09-28T09:50:39.942Z,76.68
2022-09-28T09:53:29.559Z,78.73
2022-09-28T09:56:07.438Z,79.16
2022-09-28T09:58:57.354Z,78.77
2022-09-28T10:01:39.046Z,76.38
2022-09-28T10:04:34.936Z,74.68
2022-09-28T10:07:30.386Z,77.19
2022-09-28T10:10:00.744Z,78.40
2022-09-28T10:12:45.326Z,75.91
2022-09-28T10:15:19.040Z,75.78
2022-09-28T10:18:07.125Z,73.20
2022-09-28T10:20:53.771Z,73.29
2022-09-28T10:23:34.099Z,72.60
2022-09-28T10:26:10.411Z,73.46
2022-09-28T10:28:49.327Z,71.44
2022-09-28T10:31:36.885Z,72.47
2022-09-28T10:34:08.681Z,74.33
2022-09-28T10:36:58.328Z,73.50
2022-09-28T10:39:53.433Z,75.77
2022-09-28T10:42:30.207Z,75.57
2022-09-28T10:45:19.738Z,75.29
2022-09-28T10:47:47.822Z,75.37
2022-09-28T10:50:26.272Z,75.68
2022-09-28T10:53:18.003Z,74.82
2022-09-28T10:56:23.144Z,73.37
2022-09-28T10:58:58.518Z,73.87
2022-09-28T11:01:40.794Z,71.97
2022-09-28T11:04:24.278Z,72.50
2022-09-28T11:06:52.323Z,73.28
2022-09-28T11:09:29.754Z,72.76
2022-09-28T11:12:03.373Z,73.17
2022-09-28T11:14:42.121Z,72.58
2022-09-28T11:17:40.470Z,72.14
2022-09-28T11:20:34.497Z,70.35
2022-09-28T11:23:32.069Z,70.53
2022-09-28T11:26:17.614Z,70.07
2022-09-28T11:28:52.562Z,71.03
2022-09-28T11:31:29.924Z,71.67
2022-09-28T11:34:07.054Z,69.15
2022-09-28T11:37:03.453Z,70.31
2022-09-28T11:39:36.423Z,66.54
2022-09-28T11:42:15.515Z,66.98
2022-09-28T11:44:46.761Z,67.12
2022-09-28T11:47:45.334Z,68.16
2022-09-28T11:50:24.031Z,69.23
2022-09-28T11:53:04.738Z,68.46
2022-09-28T11:56:17.466Z,67.16
2022-09-28T11:58:52.875Z,68.30
2022-09-28T12:01:41.155Z,69.45
2022-09-28T12:04:36.870Z,68.91
2022-09-28T12:07:19.031Z,67.57
2022-09-28T12:09:54.318Z,66.25
2022-09-28T12:12:34.577Z,66.52
2022-09-28T12:15:18.686Z,67.49
2022-09-28T12:17:57.306Z,68.10
2022-09-28T12:20:32.441Z,68.24
2022-09-28T12:23:00.193Z,68.40
2022-09-28T12:25:34.303Z,67.32
2022-09-28T12:28:07.456Z,67.68
2022-09-28T12:30:40.479Z,67.01
2022-09-28T12:33:17.108Z,67.80
2022-09-28T12:36:28.366Z,67.15
2022-09-28T12:39:53.476Z,65.23
2022-09-28T12:42:35.421Z,65.94
2022-09-28T12:46:06.627Z,66.58
2022-09-28T12:49:24.094Z,67.17
2022-09-28T12:52:00.321Z,65.19
2022-09-28T12:55:11.828Z,65.15
2022-09-28T12:57:47.228Z,64.23
2022-09-28T13:00:24.625Z,65.36
2022-09-28T13:03:11.255Z,64.91
2022-09-28T13:05:47.722Z,65.45
2022-09-28T13:08:41.586Z,66.72
2022-09-28T13:11:23.349Z,67.29
2022-09-28T13:14:01.839Z,67.66
2022-09-28T13:16:41.879Z,68.53
2022-09-28T13:19:26.826Z,71.72
2022-09-28T13:22:44.048Z,73.64
2022-09-28T13:25:20.500Z,72.60
2022-09-28T13:27:59.551Z,74.02
2022-09-28T13:30:27.917Z,73.38
2022-09-28T13:33:01.883Z,72.67
2022-09-28T13:35:30.024Z,72.26
2022-09-28T13:38:29.700Z,72.48
2022-09-28T13:41:06.692Z,71.11
2022-09-28T13:44:20.227Z,71.73
2022-09-28T13:47:12.881Z,72.13
2022-09-28T13:50:13.021Z,70.27
2022-09-28T13:52:52.101Z,68.84
2022-09-28T13:55:25.809Z,69.99
2022-09-28T13:57:59.845Z,70.75
2022-09-28T14:00:29.751Z,70.27
2022-09-28T14:03:21.193Z,70.52
2022-09-28T14:05:53.793Z,69.75
2022-09-28T14:08:44.666Z,69.00
2022-09-28T14:11:27.828Z,69.54
2022-09-28T14:14:08.433Z,69.26
2022-09-28T14:16:37.410Z,70.22
2022-09-28T14:19:21.386Z,71.14
2022-09-28T14:22:08.143Z,70.97
2022-09-28T14:24:55.599Z,71.76
2022-09-28T14:27:51.453Z,72.84
2022-09-28T14:30:48.168Z,72.46
2022-09-28T14:33:17.364Z,72.53
2022-09-28T14:35:53.964Z,72.01
2022-09-28T14:39:02.968Z,73.18
2022-09-28T14:41:43.887Z,73.23
2022-09-28T14:44:14.258Z,73.12
2022-09-28T14:46:45.678Z,73.57
2022-09-28T14:49:20.081Z,73.41
2022-09-28T14:51:54.083Z,73.81
2022-09-28T14:54:24.599Z,73.41
2022-09-28T14:57:08.964Z,74.97
2022-09-28T14:59:46.162Z,74.87
2022-09-28T15:02:22.589Z,75.68
2022-09-28T15:05:10.825Z,76.16
2022-09-28T15:07:52.335Z,75.77
2022-09-28T15:10:41.941Z,76.03
2022-09-28T15:13:25.600Z,76.21
2022-09-28T15:16:22.562Z,76.80
2022-09-28T15:19:15.708Z,77.36
2022-09-28T15:21:47.549Z,77.47
2022-09-28T15:24:59.960Z,77.35
2022-09-28T15:27:38.633Z,76.71
2022-09-28T15:30:15.268Z,77.58
2022-09-28T15:32:42.977Z,77.58
2022-09-28T15:35:21.825Z,78.24
2022-09-28T15:37:52.016Z,78.42
2022-09-28T15:40:32.294Z,78.12
2022-09-28T15:43:00.604Z,78.84
2022-09-28T15:45:38.389Z,78.77
2022-09-28T15:48:27.440Z,78.74
2022-09-28T15:51:12.007Z,78.87
2022-09-28T15:53:52.034Z,78.68
2022-09-28T15:56:19.779Z,78.61
2022-09-28T15:59:08.603Z,78.19
2022-09-28T16:01:39.609Z,78.20
2022-09-28T16:04:32.832Z,78.60
2022-09-28T16:07:12.516Z,79.59
2022-09-28T16:10:05.300Z,79.94
2022-09-28T16:12:48.036Z,80.36
2022-09-28T16:15:36.281Z,80.15
2022-09-28T16:18:12.671Z,81.05
2022-09-28T16:20:42.424Z,80.92
2022-09-28T16:23:33.215Z,81.71
2022-09-28T16:26:08.494Z,82.21
2022-09-28T16:28:39.279Z,82.22
2022-09-28T16:31:22.857Z,81.84
2022-09-28T16:34:21.106Z,81.30
2022-09-28T16:36:50.461Z,81.49
2022-09-28T16:39:19.728Z,82.35
2022-09-28T16:41:59.336Z,82.34
2022-09-28T16:44:32.669Z,82.78
2022-09-28T16:47:00.951Z,83.14
2022-09-28T16:49:32.064Z,83.18
2022-09-28T16:52:01.169Z,83.69
2022-09-28T16:54:48.759Z,84.07
2022-09-28T16:57:16.666Z,84.10
2022-09-28T16:59:44.471Z,84.44
2022-09-28T17:02:45.333Z,84.80
2022-09-28T17:05:10.205Z,85.09
2022-09-28T17:07:38.202Z,85.46
2022-09-28T17:10:16.416Z,85.59
2022-09-28T17:12:44.189Z,86.06
2022-09-28T17:15:12.057Z,86.50
2022-09-28T17:17:48.890Z,86.75
2022-09-28T17:20:24.070Z,87.36
2022-09-28T17:22:51.866Z,87.40
2022-09-28T17:25:21.607Z,87.51
2022-09-28T17:27:50.952Z,88.00
2022-09-28T17:30:23.507Z,88.16
2022-09-28T17:32:53.430Z,88.28
2022-09-28T17:35:25.643Z,88.62
2022-09-28T17:37:53.834Z,88.84
2022-09-28T17:40:28.457Z,89.12
2022-09-28T17:42:56.915Z,89.08
2022-09-28T17:45:31.246Z,89.45
2022-09-28T17:48:00.644Z,89.70
2022-09-28T17:50:32.382Z,89.87
2022-09-28T17:53:03.835Z,90.08
2022-09-28T17:55:33.467Z,90.39
2022-09-28T17:58:08.580Z,90.41
2022-09-28T18:00:37.061Z,90.47
2022-09-28T18:03:09.583Z,90.59
2022-09-28T18:05:37.941Z,90.99
2022-09-28T18:08:05.991Z,91.61
2022-09-28T18:10:43.097Z,91.98
2022-09-28T18:13:11.451Z,92.26
2022-09-28T18:15:39.572Z,92.20
2022-09-28T18:18:11.275Z,92.23
2022-09-28T18:20:42.911Z,92.37
2022-09-28T18:23:11.280Z,92.54
2022-09-28T18:25:44.000Z,92.51
2022-09-28T18:28:12.966Z,92.69
2022-09-28T18:30:43.681Z,92.84
2022-09-28T18:33:13.462Z,92.92
2022-09-28T18:35:49.657Z,92.87
2022-09-28T18:38:17.984Z,93.15
2022-09-28T18:40:46.089Z,93.47
2022-09-28T18:43:14.622Z,93.45
2022-09-28T18:45:42.812Z,93.70
2022-09-28T18:48:10.973Z,93.96
2022-09-28T18:50:41.263Z,94.30
2022-09-28T18:53:12.147Z,94.45
2022-09-28T18:55:41.383Z,94.49
2022-09-28T18:58:10.969Z,94.33
2022-09-28T19:00:40.957Z,94.65
2022-09-28T19:03:11.102Z,94.51
2022-09-28T19:05:43.765Z,94.69
2022-09-28T19:08:11.893Z,94.69
2022-09-28T19:10:41.725Z,94.67
2022-09-28T19:13:09.790Z,94.84
2022-09-28T19:15:38.088Z,95.26
2022-09-28T19:18:07.034Z,95.22
2022-09-28T19:20:35.170Z,95.48
2022-09-28T19:23:04.119Z,95.50
2022-09-28T19:25:32.578Z,95.48
2022-09-28T19:28:00.596Z,95.87
2022-09-28T19:30:28.648Z,95.87
2022-09-28T19:32:56.579Z,95.95
2022-09-28T19:35:24.460Z,96.00
2022-09-28T19:37:52.594Z,96.07
2022-09-28T19:40:20.677Z,96.08
2022-09-28T19:42:48.567Z,96.20
2022-09-28T19:45:16.561Z,96.40
2022-09-28T19:47:45.180Z,96.58
2022-09-28T19:50:13.015Z,96.85
2022-09-28T19:52:41.010Z,96.68
2022-09-28T19:55:09.260Z,96.89
2022-09-28T19:57:37.017Z,96.95
2022-09-28T20:00:05.447Z,97.34
2022-09-28T20:02:34.502Z,97.08
2022-09-28T20:05:02.728Z,97.29
2022-09-28T20:07:33.239Z,97.45
2022-09-28T20:10:03.811Z,97.67
2022-09-28T20:12:31.799Z,97.54
2022-09-28T20:15:00.070Z,97.53
2022-09-28T20:17:28.248Z,97.27
2022-09-28T20:19:58.738Z,97.49
2022-09-28T20:22:26.765Z,97.53
2022-09-28T20:24:54.697Z,97.69
2022-09-28T20:27:26.203Z,97.89
2022-09-28T20:29:54.606Z,98.01
2022-09-28T20:32:22.596Z,98.51
2022-09-28T20:34:50.413Z,98.46
2022-09-28T20:37:18.529Z,98.52
2022-09-28T20:39:46.299Z,99.06
2022-09-28T20:42:15.660Z,99.37
2022-09-28T20:44:45.414Z,99.36
2022-09-28T20:47:13.259Z,99.13
2022-09-28T20:49:41.486Z,99.25
2022-09-28T20:52:09.326Z,99.39
2022-09-28T20:54:38.066Z,99.65
2022-09-28T20:57:17.388Z,99.39
2022-09-28T20:59:48.781Z,99.33
2022-09-28T21:02:20.205Z,99.66
2022-09-28T21:04:48.038Z,99.47
2022-09-28T21:07:16.006Z,99.56
2022-09-28T21:09:43.762Z,99.69
2022-09-28T21:12:12.699Z,99.99
2022-09-28T21:14:40.730Z,99.94
2022-09-28T21:17:08.593Z,99.99
2022-09-28T21:19:36.470Z,99.94
2022-09-28T21:22:04.235Z,99.99
2022-09-28T21:24:31.977Z,99.99
2022-09-28T21:26:59.746Z,99.99
2022-09-28T21:29:27.652Z,99.99
2022-09-28T21:31:55.661Z,99.99
2022-09-28T21:34:25.165Z,99.99
2022-09-28T21:36:53.083Z,99.99
2022-09-28T21:39:21.169Z,99.99
2022-09-28T21:41:50.266Z,99.99
2022-09-28T21:44:17.983Z,99.99
2022-09-28T21:46:45.816Z,99.99
2022-09-28T21:49:16.514Z,99.99
2022-09-28T21:51:46.951Z,99.99
2022-09-28T21:54:15.081Z,99.99
2022-09-28T21:56:43.246Z,99.99
2022-09-28T21:59:11.070Z,99.99
2022-09-28T22:01:39.090Z,99.99
2022-09-28T22:04:07.123Z,99.99
2022-09-28T22:06:35.094Z,99.99
2022-09-28T22:09:03.133Z,99.99
2022-09-28T22:11:31.380Z,99.99
2022-09-28T22:13:59.994Z,99.99
2022-09-28T22:16:30.734Z,99.99
2022-09-28T22:18:59.758Z,99.99
2022-09-28T22:21:32.632Z,99.99
2022-09-28T22:24:02.623Z,99.99
2022-09-28T22:26:32.117Z,99.99
2022-09-28T22:29:02.386Z,99.99
2022-09-28T22:31:32.839Z,99.99
2022-09-28T22:34:00.796Z,99.99
2022-09-28T22:36:28.925Z,99.99
2022-09-28T22:38:58.021Z,99.99
2022-09-28T22:41:26.439Z,99.99
2022-09-28T22:43:56.029Z,99.99
2022-09-28T22:46:26.977Z,99.99
2022-09-28T22:48:59.237Z,99.99
2022-09-28T22:51:28.747Z,99.99
2022-09-28T22:53:56.880Z,99.99
2022-09-28T22:56:25.098Z,99.99
2022-09-28T22:58:53.134Z,99.99
2022-09-28T23:01:27.903Z,99.99
2022-09-28T23:03:57.596Z,99.99
2022-09-28T23:06:28.237Z,99.99
2022-09-28T23:08:56.368Z,99.99
2022-09-28T23:11:24.549Z,99.99
2022-09-28T23:13:54.018Z,99.99
2022-09-28T23:16:24.721Z,99.99
2022-09-28T23:18:54.223Z,99.99
2022-09-28T23:21:25.577Z,99.99
2022-09-28T23:23:56.339Z,99.99
2022-09-28T23:26:27.009Z,99.99
2022-09-28T23:28:55.612Z,99.99
2022-09-28T23:31:29.400Z,99.99
2022-09-28T23:34:01.266Z,99.99
2022-09-28T23:36:30.052Z,99.99
2022-09-28T23:38:58.010Z,99.99
2022-09-28T23:41:25.790Z,99.99
2022-09-28T23:43:53.618Z,99.99
2022-09-28T23:46:21.632Z,99.99
2022-09-28T23:48:49.991Z,99.99
2022-09-28T23:51:17.926Z,99.99
2022-09-28T23:53:46.138Z,99.99
2022-09-28T23:56:14.578Z,99.99
2022-09-28T23:58:42.903Z,99.99
